Time;durP1;ratioP1;P1;durP2;ratioP2;P2;SDS_P1;SDS_P2;PMS_P1;PMS_P2;Temp;Humidity;BMP_temperature;BMP_pressure;BME280_temperature;BME280_humidity;BME280_pressure;Samples;Min_cycle;Max_cycle;Signal;HPM_P1;HPM_P2
2022/04/19 00:00:42;;;;;;;8.82;6.47;;;;;;;9.63;68.39;101386.31;5195749;28;20060;-66
2022/04/19 00:03:14;;;;;;;8.70;6.78;;;;;;;9.51;69.20;101388.03;5196580;28;20022;-67
2022/04/19 00:05:46;;;;;;;8.77;6.25;;;;;;;9.50;69.03;101389.78;5198522;28;20033;-66
2022/04/19 00:08:18;;;;;;;8.02;6.82;;;;;;;9.46;70.23;101390.94;5197110;28;20037;-66
2022/04/19 00:10:49;;;;;;;8.02;6.70;;;;;;;9.46;69.43;101380.47;5194669;28;20038;-67
2022/04/19 00:13:21;;;;;;;7.40;6.38;;;;;;;9.43;69.32;101377.25;5196303;28;20618;-66
2022/04/19 00:15:52;;;;;;;8.73;6.63;;;;;;;9.37;69.30;101377.72;5197698;28;20025;-67
2022/04/19 00:18:24;;;;;;;10.38;7.18;;;;;;;9.34;71.33;101376.13;5196026;28;20038;-67
2022/04/19 00:20:56;;;;;;;9.95;7.15;;;;;;;9.28;72.11;101376.59;5197280;28;20029;-67
2022/04/19 00:23:28;;;;;;;8.20;6.57;;;;;;;9.22;72.85;101375.22;5197407;28;20030;-66
2022/04/19 00:25:59;;;;;;;9.70;7.07;;;;;;;9.19;73.33;101379.84;5196028;28;20030;-67
2022/04/19 00:28:31;;;;;;;9.70;7.10;;;;;;;9.12;73.72;101373.38;5196726;28;20194;-67
2022/04/19 00:31:03;;;;;;;10.50;7.28;;;;;;;9.07;74.74;101372.84;5196273;28;20480;-67
2022/04/19 00:33:38;;;;;;;9.65;7.45;;;;;;;9.04;75.31;101367.84;5197814;28;20037;-66
2022/04/19 00:36:11;;;;;;;7.85;6.78;;;;;;;9.00;75.05;101370.66;5196526;28;20241;-67
2022/04/19 00:38:42;;;;;;;9.15;6.40;;;;;;;9.06;75.23;101358.13;5198581;28;20029;-66
2022/04/19 00:41:13;;;;;;;10.43;6.47;;;;;;;9.05;76.06;101365.09;5198215;28;20484;-66
2022/04/19 00:43:45;;;;;;;10.23;7.03;;;;;;;9.02;75.85;101363.56;5194802;28;20036;-67
2022/04/19 00:46:16;;;;;;;10.40;7.03;;;;;;;8.96;76.26;101363.97;5193409;28;20023;-67
2022/04/19 00:48:47;;;;;;;8.73;6.53;;;;;;;9.00;75.50;101364.59;5198502;28;20542;-67
2022/04/19 00:51:19;;;;;;;8.75;7.40;;;;;;;8.95;75.34;101371.94;5196434;28;20033;-67
2022/04/19 00:53:50;;;;;;;10.85;7.60;;;;;;;8.83;77.55;101368.41;5197590;28;20025;-66
2022/04/19 00:56:21;;;;;;;9.15;7.28;;;;;;;8.78;77.42;101362.63;5192204;28;20062;-66
2022/04/19 00:58:54;;;;;;;8.95;6.68;;;;;;;8.77;77.64;101367.03;5195671;28;20712;-67
2022/04/19 01:01:25;;;;;;;9.40;8.00;;;;;;;8.77;76.71;101364.41;5198489;28;20053;-67
2022/04/19 01:03:58;;;;;;;9.90;6.97;;;;;;;8.65;79.62;101361.81;5197071;28;20312;-66
2022/04/19 01:06:29;;;;;;;9.17;7.00;;;;;;;8.69;79.41;101361.50;5196360;28;20030;-66
2022/04/19 01:09:01;;;;;;;8.88;7.18;;;;;;;8.61;79.75;101368.19;5195066;28;20300;-67
2022/04/19 01:14:24;;;;;;;7.88;7.07;;;;;;;8.57;79.93;101366.75;5196124;28;20045;-66
2022/04/19 01:16:55;;;;;;;9.52;7.18;;;;;;;8.57;80.92;101364.97;5189004;28;20463;-66
2022/04/19 01:19:27;;;;;;;15.60;6.75;;;;;;;8.61;81.88;101353.38;5194075;28;20124;-66
2022/04/19 01:21:58;;;;;;;8.88;6.63;;;;;;;8.61;81.12;101352.53;5197278;28;20022;-67
2022/04/19 01:24:30;;;;;;;8.82;7.20;;;;;;;8.56;81.21;101349.38;5195122;28;20058;-67
2022/04/19 01:27:01;;;;;;;10.20;7.35;;;;;;;8.62;84.27;101343.75;5196579;28;20014;-66
2022/04/19 01:29:35;;;;;;;9.18;7.47;;;;;;;8.61;83.41;101348.13;5195750;28;20080;-66
2022/04/19 01:32:07;;;;;;;8.52;7.63;;;;;;;8.54;82.24;101344.28;5195715;28;20080;-66
2022/04/19 01:34:38;;;;;;;11.45;8.00;;;;;;;8.52;81.31;101341.78;5195651;28;20108;-67
2022/04/19 01:37:10;;;;;;;10.60;8.07;;;;;;;8.48;82.50;101347.28;5194400;28;20032;-66
2022/04/19 01:42:31;;;;;;;9.25;8.35;;;;;;;8.45;82.69;101348.34;5196950;28;20488;-67
2022/04/19 01:45:03;;;;;;;10.13;8.50;;;;;;;8.42;81.40;101343.34;5195281;28;20034;-68
2022/04/19 01:47:34;;;;;;;8.77;7.88;;;;;;;8.40;82.06;101344.38;5195964;28;20038;-67
2022/04/19 01:50:10;;;;;;;8.50;7.60;;;;;;;8.34;84.46;101350.81;5195110;28;20069;-67
2022/04/19 01:52:43;;;;;;;9.52;7.70;;;;;;;8.38;83.21;101344.47;5194737;28;20073;-66
2022/04/19 01:55:16;;;;;;;10.25;7.50;;;;;;;8.37;83.95;101349.75;5194995;28;20137;-66
2022/04/19 01:57:51;;;;;;;8.27;7.18;;;;;;;8.30;85.05;101346.75;5195315;28;20045;-67
2022/04/19 02:00:29;;;;;;;8.80;7.07;;;;;;;8.29;83.52;101342.44;5195151;28;20065;-66
2022/04/19 02:03:03;;;;;;;10.70;7.25;;;;;;;8.36;83.68;101355.94;5194282;28;20088;-66
2022/04/19 02:05:34;;;;;;;11.25;7.70;;;;;;;8.31;83.13;101345.78;5193658;28;20120;-67
2022/04/19 02:08:06;;;;;;;9.68;7.57;;;;;;;8.27;83.09;101345.16;5202171;28;20117;-67
2022/04/19 02:10:37;;;;;;;9.00;7.15;;;;;;;8.19;83.72;101347.47;5201490;28;20488;-66
2022/04/19 02:13:08;;;;;;;9.40;7.78;;;;;;;8.12;84.64;101342.75;5200869;28;20041;-66
2022/04/19 02:15:40;;;;;;;7.93;7.10;;;;;;;8.17;83.95;101345.88;5203960;28;20026;-67
2022/04/19 02:18:12;;;;;;;9.82;8.02;;;;;;;7.98;86.10;101343.66;5201706;28;20116;-66
2022/04/19 02:20:45;;;;;;;12.93;8.05;;;;;;;7.88;87.21;101340.84;5202483;28;20033;-66
2022/04/19 02:23:16;;;;;;;10.93;8.55;;;;;;;7.81;87.78;101326.50;5200608;28;20034;-66
2022/04/19 02:25:51;;;;;;;10.85;8.32;;;;;;;7.77;86.94;101330.25;5203401;28;20392;-66
2022/04/19 02:28:22;;;;;;;10.15;8.27;;;;;;;7.69;88.28;101328.16;5199425;28;20373;-66
2022/04/19 02:30:54;;;;;;;10.23;8.30;;;;;;;7.69;88.40;101335.09;5201090;28;20265;-66
2022/04/19 02:33:25;;;;;;;9.73;8.38;;;;;;;7.68;86.50;101331.66;5201534;28;20029;-66
2022/04/19 02:35:56;;;;;;;12.68;8.60;;;;;;;7.73;87.88;101326.19;5201582;28;20410;-66
2022/04/19 02:38:28;;;;;;;11.60;7.65;;;;;;;7.76;87.92;101324.19;5201552;28;20373;-66
2022/04/19 02:40:59;;;;;;;9.90;8.20;;;;;;;7.80;86.90;101330.03;5203142;28;20030;-66
2022/04/19 02:43:31;;;;;;;10.27;8.10;;;;;;;7.86;85.89;101334.03;5200800;28;20033;-66
2022/04/19 02:46:02;;;;;;;9.50;8.25;;;;;;;7.67;88.45;101330.00;5202823;28;20329;-66
2022/04/19 02:48:34;;;;;;;13.15;8.52;;;;;;;7.75;87.64;101332.13;5203251;28;20037;-66
2022/04/19 02:51:06;;;;;;;10.13;8.10;;;;;;;7.76;87.10;101323.34;5203779;28;20085;-67
2022/04/19 02:53:37;;;;;;;9.73;8.73;;;;;;;7.64;88.93;101326.75;5202192;28;20096;-66
2022/04/19 02:56:08;;;;;;;9.93;7.72;;;;;;;7.70;89.26;101322.00;5200835;28;20033;-66
2022/04/19 02:58:39;;;;;;;9.40;8.20;;;;;;;7.51;88.34;101319.75;5202761;28;20060;-67
2022/04/19 03:01:11;;;;;;;9.95;8.27;;;;;;;7.36;93.20;101325.94;5202628;28;20038;-66
2022/04/19 03:03:43;;;;;;;13.57;8.90;;;;;;;7.21;94.37;101319.91;5202870;28;20034;-66
2022/04/19 03:06:14;;;;;;;10.77;8.55;;;;;;;7.17;95.89;101321.03;5202435;28;20030;-66
2022/04/19 03:08:46;;;;;;;10.07;9.02;;;;;;;7.13;94.98;101313.53;5200691;28;20111;-66
2022/04/19 03:11:17;;;;;;;12.07;8.63;;;;;;;7.10;94.49;101321.53;5199820;28;20263;-66
2022/04/19 03:13:48;;;;;;;10.07;9.05;;;;;;;7.11;94.19;101317.97;5202886;28;20368;-66
2022/04/19 03:16:19;;;;;;;9.65;8.40;;;;;;;7.06;94.73;101311.28;5204875;28;20468;-66
2022/04/19 03:18:51;;;;;;;11.85;9.30;;;;;;;7.11;94.94;101320.59;5197000;28;20029;-66
2022/04/19 03:21:22;;;;;;;11.95;9.13;;;;;;;7.10;94.05;101321.53;5200867;28;20034;-66
2022/04/19 03:29:34;;;;;;;9.77;8.55;;;;;;;6.99;96.96;101323.03;5201942;28;20078;-66
2022/04/19 03:32:09;;;;;;;11.18;9.52;;;;;;;6.94;97.06;101326.84;5199905;28;20056;-66
2022/04/19 03:34:40;;;;;;;13.15;9.27;;;;;;;6.88;98.23;101328.06;5197114;28;20092;-67
2022/04/19 03:37:11;;;;;;;14.15;9.75;;;;;;;6.87;97.51;101331.59;5198259;28;20030;-66
2022/04/19 03:39:43;;;;;;;12.73;9.63;;;;;;;6.87;95.03;101329.00;5195904;28;20436;-66
2022/04/19 03:42:14;;;;;;;14.70;10.65;;;;;;;6.84;97.30;101321.38;5197304;28;20076;-66
2022/04/19 03:44:45;;;;;;;10.55;9.45;;;;;;;6.81;98.27;101321.53;5197674;28;20057;-67
2022/04/19 03:47:16;;;;;;;12.15;9.88;;;;;;;6.76;98.89;101318.41;5196297;28;20056;-66
2022/04/19 03:49:48;;;;;;;13.38;10.27;;;;;;;6.69;100.00;101319.69;5197223;28;20077;-66
2022/04/19 03:52:20;;;;;;;16.23;10.25;;;;;;;6.64;100.00;101316.56;5198045;28;20037;-67
2022/04/19 03:54:51;;;;;;;13.15;10.52;;;;;;;6.60;100.00;101320.28;5197371;28;20026;-66
2022/04/19 03:57:23;;;;;;;13.40;10.48;;;;;;;6.56;100.00;101324.81;5198405;28;20026;-66
2022/04/19 03:59:54;;;;;;;13.18;10.65;;;;;;;6.52;100.00;101318.97;5197862;28;20084;-66
2022/04/19 04:02:26;;;;;;;11.45;10.25;;;;;;;6.59;99.98;101322.00;5197792;28;20105;-66
2022/04/19 04:04:57;;;;;;;13.88;10.40;;;;;;;6.58;98.16;101328.16;5196265;28;20026;-67
2022/04/19 04:07:30;;;;;;;15.70;10.73;;;;;;;6.58;98.36;101328.16;5198568;28;20129;-66
2022/04/19 04:10:01;;;;;;;12.87;9.10;;;;;;;6.57;97.35;101329.09;5198616;28;20028;-67
2022/04/19 04:12:33;;;;;;;12.02;10.27;;;;;;;6.56;98.75;101330.88;5196325;28;20409;-67
2022/04/19 04:15:05;;;;;;;11.05;9.55;;;;;;;6.55;97.23;101333.53;5195578;28;20460;-66
2022/04/19 04:17:36;;;;;;;11.75;10.43;;;;;;;6.53;99.57;101320.63;5197152;28;20040;-66
2022/04/19 04:20:08;;;;;;;12.65;10.75;;;;;;;6.53;100.00;101325.00;5196311;28;20026;-66
2022/04/19 04:22:39;;;;;;;11.75;9.45;;;;;;;6.46;100.00;101321.91;5197461;28;20057;-66
2022/04/19 04:25:11;;;;;;;12.75;10.88;;;;;;;6.49;99.78;101324.34;5197749;28;20771;-66
2022/04/19 04:27:42;;;;;;;16.02;10.20;;;;;;;6.41;100.00;101323.13;5197024;28;20041;-66
2022/04/19 04:30:13;;;;;;;14.32;10.32;;;;;;;6.46;99.83;101329.72;5195858;28;20507;-66
2022/04/19 04:32:45;;;;;;;12.35;10.50;;;;;;;6.46;99.04;101331.50;5197660;28;20022;-66
2022/04/19 04:35:16;;;;;;;12.50;10.43;;;;;;;6.38;99.13;101312.91;5197773;28;20280;-66
2022/04/19 04:37:47;;;;;;;11.85;9.65;;;;;;;6.46;97.71;101334.09;5195459;28;20085;-66
2022/04/19 04:40:19;;;;;;;14.88;10.13;;;;;;;6.45;97.95;101332.44;5197472;28;20064;-66
2022/04/19 04:42:50;;;;;;;12.13;10.73;;;;;;;6.43;97.98;101334.28;5198060;28;20027;-66
2022/04/19 04:45:21;;;;;;;13.02;10.57;;;;;;;6.42;97.43;101337.81;5197334;28;20097;-66
2022/04/19 04:50:42;;;;;;;12.65;10.10;;;;;;;6.46;99.79;101336.72;5196602;28;20389;-66
2022/04/19 04:53:14;;;;;;;15.43;10.45;;;;;;;6.43;100.00;101337.72;5197719;28;20026;-67
2022/04/19 04:55:45;;;;;;;14.00;10.57;;;;;;;6.41;100.00;101341.34;5194043;28;20060;-66
2022/04/19 04:58:16;;;;;;;12.95;11.15;;;;;;;6.45;99.99;101341.09;5196778;28;20159;-67
2022/04/19 05:00:48;;;;;;;14.10;10.65;;;;;;;6.48;100.00;101340.06;5195863;28;20130;-66
2022/04/19 05:03:19;;;;;;;13.15;11.50;;;;;;;6.49;100.00;101342.56;5193146;28;20026;-66
2022/04/19 05:05:50;;;;;;;13.02;10.98;;;;;;;6.54;100.00;101337.91;5196680;28;20105;-66
2022/04/19 05:08:22;;;;;;;14.80;11.15;;;;;;;6.57;100.00;101337.72;5196942;28;20487;-66
2022/04/19 05:10:53;;;;;;;15.65;12.23;;;;;;;6.71;99.14;101341.28;5194640;28;20986;-66
2022/04/19 05:13:24;;;;;;;15.18;11.23;;;;;;;6.73;97.58;101337.63;5198762;28;20391;-66
2022/04/19 05:15:58;;;;;;;14.57;12.15;;;;;;;6.82;96.47;101334.50;5196211;28;20034;-66
2022/04/19 05:18:32;;;;;;;17.50;12.00;;;;;;;6.91;95.16;101338.28;5192124;28;20579;-67
2022/04/19 05:21:05;;;;;;;13.68;11.80;;;;;;;6.98;93.33;101338.75;5196262;28;20022;-66
2022/04/19 05:23:36;;;;;;;13.60;12.20;;;;;;;7.21;90.39;101342.53;5196467;28;20819;-66
2022/04/19 05:26:07;;;;;;;17.65;12.40;;;;;;;7.36;89.42;101341.56;5194284;28;20022;-66
2022/04/19 05:28:39;;;;;;;17.55;12.32;;;;;;;7.50;86.62;101348.50;5196014;28;20322;-66
2022/04/19 05:31:10;;;;;;;15.57;12.07;;;;;;;7.58;86.93;101346.25;5198922;28;20029;-66
2022/04/19 05:33:42;;;;;;;16.88;12.82;;;;;;;7.73;85.54;101345.28;5196711;28;20112;-66
2022/04/19 05:36:13;;;;;;;16.25;12.70;;;;;;;7.85;84.10;101341.03;5192134;28;20030;-66
2022/04/19 05:38:45;;;;;;;14.77;12.68;;;;;;;7.96;82.35;101340.31;5195260;28;20022;-67
2022/04/19 05:41:16;;;;;;;16.75;12.82;;;;;;;8.11;81.71;101339.31;5191678;28;20054;-67
2022/04/19 05:43:48;;;;;;;17.67;12.18;;;;;;;8.22;78.39;101346.41;5194179;28;20113;-67
2022/04/19 05:46:20;;;;;;;15.17;12.40;;;;;;;8.30;78.72;101341.53;5196127;28;20484;-66
2022/04/19 05:48:52;;;;;;;19.38;12.73;;;;;;;8.39;77.66;101345.31;5196700;28;20343;-66
2022/04/19 05:51:23;;;;;;;15.48;12.35;;;;;;;8.46;77.81;101343.97;5195292;28;20053;-67
2022/04/19 05:53:54;;;;;;;17.73;12.60;;;;;;;8.58;75.23;101347.50;5194923;28;20048;-67
2022/04/19 05:56:26;;;;;;;20.67;13.07;;;;;;;8.67;75.28;101341.66;5195876;28;20053;-67
2022/04/19 05:58:57;;;;;;;13.52;11.65;;;;;;;8.76;74.25;101359.31;5195562;28;20030;-67
2022/04/19 06:04:51;;;;;;;15.93;11.63;;;;;;;8.83;72.57;101352.72;5195838;28;20054;-66
2022/04/19 06:07:10;;;;;;;14.70;11.63;;;;;;;9.01;71.51;101356.66;5196052;28;20439;-67
2022/04/19 06:09:41;;;;;;;15.55;11.63;;;;;;;9.07;71.26;101365.03;5198449;28;20030;-66
2022/04/19 06:12:12;;;;;;;18.48;12.90;;;;;;;9.19;71.39;101356.31;5194996;28;20026;-67
2022/04/19 06:14:44;;;;;;;16.48;12.80;;;;;;;9.26;70.30;101366.22;5185173;28;20037;-67
2022/04/19 06:17:21;;;;;;;18.88;12.27;;;;;;;9.41;70.31;101363.47;5195888;28;20036;-67
2022/04/19 06:19:52;;;;;;;15.52;12.02;;;;;;;9.50;69.99;101363.63;5195527;28;20062;-68
2022/04/19 06:22:23;;;;;;;14.63;11.20;;;;;;;9.56;69.41;101362.38;5194403;28;20440;-68
2022/04/19 06:24:55;;;;;;;14.23;11.07;;;;;;;9.69;67.96;101367.53;5187029;28;21251;-67
2022/04/19 06:27:26;;;;;;;15.05;11.18;;;;;;;9.85;65.63;101362.88;5191209;28;20100;-67
2022/04/19 06:29:58;;;;;;;14.68;11.35;;;;;;;9.97;65.41;101371.59;5194411;28;20037;-67
2022/04/19 06:32:29;;;;;;;14.73;11.38;;;;;;;10.16;63.95;101361.41;5192099;28;20045;-68
2022/04/19 06:35:00;;;;;;;15.23;10.40;;;;;;;10.32;61.85;101369.00;5196503;28;20045;-67
2022/04/19 06:37:32;;;;;;;14.73;11.07;;;;;;;10.64;59.49;101358.66;5195459;28;20112;-67
2022/04/19 06:40:06;;;;;;;14.05;11.05;;;;;;;10.87;60.21;101366.53;5190775;28;20500;-68
2022/04/19 06:42:37;;;;;;;16.60;11.85;;;;;;;10.94;60.43;101367.72;5192546;28;20469;-67
2022/04/19 06:45:10;;;;;;;13.38;10.38;;;;;;;11.29;58.07;101362.34;5194264;28;20036;-67
2022/04/19 06:47:41;;;;;;;13.97;11.07;;;;;;;11.47;55.99;101367.91;5193097;28;20365;-68
2022/04/19 06:50:12;;;;;;;16.75;11.27;;;;;;;11.67;57.09;101364.53;5198456;28;20084;-68
2022/04/19 06:52:44;;;;;;;12.50;10.45;;;;;;;11.83;55.17;101364.13;5197082;28;20567;-68
2022/04/19 06:55:16;;;;;;;13.20;9.90;;;;;;;11.95;55.61;101370.16;5197632;28;20054;-68
2022/04/19 06:57:48;;;;;;;15.52;12.07;;;;;;;12.14;55.67;101374.72;5196557;28;20026;-69
2022/04/19 07:00:19;;;;;;;13.85;11.02;;;;;;;12.24;54.40;101365.13;5197665;28;20042;-68
2022/04/19 07:02:50;;;;;;;13.00;10.50;;;;;;;12.34;54.63;101370.44;5195003;28;20032;-68
2022/04/19 07:05:21;;;;;;;12.27;10.35;;;;;;;12.45;55.41;101367.75;5193748;28;20400;-68
2022/04/19 07:07:53;;;;;;;16.27;11.18;;;;;;;12.70;55.07;101373.56;5197752;28;20109;-68
2022/04/19 07:10:24;;;;;;;12.60;10.15;;;;;;;12.57;54.58;101365.88;5200891;28;20030;-68
2022/04/19 07:12:56;;;;;;;16.65;11.55;;;;;;;12.80;53.78;101377.88;5197688;28;20017;-68
2022/04/19 07:15:27;;;;;;;13.85;10.88;;;;;;;12.95;52.17;101372.28;5192335;28;20145;-68
2022/04/19 07:17:58;;;;;;;14.07;10.43;;;;;;;13.06;51.16;101377.44;5198354;28;20026;-68
2022/04/19 07:29:00;;;;;;;19.58;10.13;;;;;;;13.68;48.96;101373.75;5193290;28;20042;-68
2022/04/19 07:31:33;;;;;;;14.52;10.48;;;;;;;13.88;49.13;101377.22;5184719;28;20065;-68
2022/04/19 07:34:04;;;;;;;13.82;11.18;;;;;;;13.99;47.35;101381.50;5195683;28;20455;-68
2022/04/19 07:36:39;;;;;;;16.52;11.27;;;;;;;14.14;47.39;101384.56;5195488;28;20034;-68
2022/04/19 07:39:12;;;;;;;13.88;10.35;;;;;;;14.29;47.60;101383.97;5191516;28;20060;-68
2022/04/19 07:41:46;;;;;;;13.65;10.32;;;;;;;14.42;46.14;101382.84;5197652;28;20026;-68
2022/04/19 07:44:18;;;;;;;16.08;10.55;;;;;;;14.54;43.68;101384.38;5196694;28;20060;-68
2022/04/19 07:46:50;;;;;;;14.07;10.55;;;;;;;14.63;44.00;101385.34;5198276;28;20017;-68
2022/04/19 07:49:21;;;;;;;14.35;10.43;;;;;;;14.86;44.47;101385.81;5193745;28;20329;-65
2022/04/19 07:51:54;;;;;;;13.10;9.63;;;;;;;15.01;43.21;101389.63;5197272;28;20030;-68
2022/04/19 07:54:25;;;;;;;12.95;10.10;;;;;;;15.10;42.26;101378.19;5197111;28;20030;-68
2022/04/19 07:56:56;;;;;;;13.27;9.30;;;;;;;15.25;43.15;101382.00;5193637;28;20058;-66
2022/04/19 07:59:28;;;;;;;13.88;9.60;;;;;;;15.36;41.46;101390.72;5196793;28;20050;-65
2022/04/19 08:01:59;;;;;;;12.73;8.55;;;;;;;15.35;40.27;101383.78;5190561;28;20295;-67
2022/04/19 08:04:30;;;;;;;13.02;9.25;;;;;;;15.53;41.47;101385.47;5191551;28;20057;-67
2022/04/19 08:07:02;;;;;;;12.13;9.33;;;;;;;15.66;41.56;101386.94;5198102;28;20087;-68
2022/04/19 08:09:33;;;;;;;15.25;10.02;;;;;;;15.66;40.54;101384.28;5192466;28;20647;-67
2022/04/19 08:12:05;;;;;;;13.63;8.77;;;;;;;15.79;40.95;101379.44;5194016;28;20107;-67
2022/04/19 08:14:36;;;;;;;11.63;8.90;;;;;;;15.95;42.40;101376.97;5193587;28;20248;-67
2022/04/19 08:17:08;;;;;;;12.98;9.35;;;;;;;16.18;40.56;101376.50;5194675;28;20105;-67
2022/04/19 08:19:39;;;;;;;14.55;8.77;;;;;;;16.14;40.42;101378.63;5195931;28;20503;-67
2022/04/19 08:22:10;;;;;;;17.00;9.02;;;;;;;16.34;40.75;101379.25;5193663;28;20041;-67
2022/04/19 08:24:42;;;;;;;14.15;8.60;;;;;;;16.40;40.32;101362.78;5190750;28;20018;-67
2022/04/19 08:27:17;;;;;;;12.52;8.75;;;;;;;16.67;40.19;101367.06;5195031;28;20040;-67
2022/04/19 08:29:48;;;;;;;11.25;8.43;;;;;;;16.70;39.19;101373.84;5193313;28;20031;-67
2022/04/19 08:32:20;;;;;;;9.77;7.18;;;;;;;16.74;38.00;101365.50;5194461;28;20034;-67
2022/04/19 08:34:51;;;;;;;12.13;7.57;;;;;;;16.81;38.91;101370.97;5190535;28;20038;-68
2022/04/19 08:37:22;;;;;;;11.40;7.82;;;;;;;16.91;37.72;101370.84;5189190;28;20065;-69
2022/04/19 08:39:53;;;;;;;12.55;7.63;;;;;;;17.07;38.50;101370.91;5194259;28;20022;-67
2022/04/19 08:42:25;;;;;;;11.70;7.43;;;;;;;17.03;37.21;101367.75;5191940;28;20535;-68
2022/04/19 08:45:00;;;;;;;12.57;8.55;;;;;;;17.14;37.93;101365.81;5196785;28;20296;-67
2022/04/19 08:47:33;;;;;;;10.63;7.82;;;;;;;17.29;38.53;101369.50;5195713;28;20030;-68
2022/04/19 08:50:09;;;;;;;10.02;7.55;;;;;;;17.56;38.15;101368.41;5198929;28;20026;-67
2022/04/19 08:52:41;;;;;;;14.02;7.90;;;;;;;17.52;36.51;101370.53;5194087;28;20053;-67
2022/04/19 08:58:04;;;;;;;9.70;6.97;;;;;;;17.75;35.79;101365.47;5192230;28;20480;-68
2022/04/19 09:00:35;;;;;;;10.20;6.93;;;;;;;17.82;35.46;101362.19;5192748;28;20050;-68
2022/04/19 09:03:07;;;;;;;9.30;6.25;;;;;;;18.05;36.44;101367.66;5194270;28;20048;-68
2022/04/19 09:05:51;;;;;;;8.43;5.40;;;;;;;18.30;35.10;101366.63;5193105;28;20235;-68
2022/04/19 09:08:22;;;;;;;7.47;4.90;;;;;;;18.02;34.11;101367.97;5192861;28;20026;-68
2022/04/19 09:11:04;;;;;;;7.07;5.00;;;;;;;18.19;34.42;101377.59;5193901;28;20029;-68
2022/04/19 09:13:36;;;;;;;8.85;5.80;;;;;;;17.98;33.98;101354.22;5191302;28;20045;-68
2022/04/19 09:16:08;;;;;;;8.35;5.55;;;;;;;17.96;34.64;101362.34;5191358;28;20049;-69
2022/04/19 09:18:40;;;;;;;5.85;4.20;;;;;;;17.97;33.48;101348.09;5195478;28;20037;-68
2022/04/19 09:21:12;;;;;;;7.43;5.13;;;;;;;17.95;33.79;101352.72;5193901;28;20030;-68
2022/04/19 09:23:53;;;;;;;7.00;5.10;;;;;;;18.18;34.89;101346.75;5192805;28;20077;-68
2022/04/19 09:26:42;;;;;;;9.35;5.57;;;;;;;18.32;33.87;101354.03;5190824;28;20033;-67
2022/04/19 09:29:25;;;;;;;11.85;5.88;;;;;;;18.28;34.81;101350.06;5191652;28;20025;-67
2022/04/19 09:31:58;;;;;;;11.25;5.72;;;;;;;18.33;33.67;101344.22;5193465;28;20511;-67
2022/04/19 09:34:36;;;;;;;9.43;5.97;;;;;;;18.22;32.99;101354.22;5196352;28;20041;-67
2022/04/19 09:37:13;;;;;;;8.18;5.45;;;;;;;18.30;33.79;101347.25;5191987;28;20499;-67
2022/04/19 09:39:44;;;;;;;7.30;4.80;;;;;;;18.36;33.04;101346.56;5198630;28;20064;-67
2022/04/19 09:42:15;;;;;;;8.70;5.03;;;;;;;18.46;33.94;101345.38;5186595;28;20125;-67
2022/04/19 09:44:53;;;;;;;8.47;4.47;;;;;;;18.59;33.73;101344.84;5187382;28;20057;-67
2022/04/19 09:47:25;;;;;;;8.35;4.93;;;;;;;18.69;33.17;101342.81;5191164;28;20280;-67
2022/04/19 09:49:58;;;;;;;8.02;4.63;;;;;;;18.55;32.47;101351.47;5193224;28;20034;-67
2022/04/19 09:52:30;;;;;;;7.68;5.57;;;;;;;18.62;33.19;101351.63;5193845;28;20042;-68
2022/04/19 09:55:03;;;;;;;7.50;4.35;;;;;;;18.66;31.84;101343.16;5195522;28;20030;-68
2022/04/19 09:57:37;;;;;;;7.80;4.05;;;;;;;18.76;32.60;101337.69;5191174;28;20058;-68
2022/04/19 10:00:14;;;;;;;9.35;4.55;;;;;;;18.96;32.11;101338.94;5192396;28;20121;-68
2022/04/19 10:08:26;;;;;;;8.07;4.50;;;;;;;19.02;31.18;101316.19;5195960;28;20070;-66
2022/04/19 10:10:58;;;;;;;10.65;4.70;;;;;;;19.22;31.37;101327.19;5198613;28;20367;-68
2022/04/19 10:13:31;;;;;;;8.02;4.90;;;;;;;19.22;31.38;101331.69;5193264;28;20673;-67
2022/04/19 10:16:04;;;;;;;8.55;4.93;;;;;;;19.18;31.06;101323.22;5193044;28;20030;-67
2022/04/19 10:18:35;;;;;;;;;;;;;;;19.82;31.76;101321.16;5191625;28;20043;-67
2022/04/19 10:21:10;;;;;;;8.33;5.43;;;;;;;19.32;31.88;101332.25;5190425;28;19917;-67
2022/04/19 10:23:43;;;;;;;7.93;4.70;;;;;;;19.25;31.60;101326.84;5187717;28;20057;-66
2022/04/19 10:26:22;;;;;;;7.13;4.82;;;;;;;19.51;31.98;101321.19;5186820;28;20033;-66
2022/04/19 10:28:55;;;;;;;8.75;4.63;;;;;;;19.55;31.18;101334.97;5190400;28;20034;-66
2022/04/19 10:31:35;;;;;;;7.35;4.70;;;;;;;19.53;31.24;101334.28;5195707;28;20038;-66
2022/04/19 10:34:09;;;;;;;7.25;5.00;;;;;;;19.29;31.14;101333.47;5193096;28;20141;-66
2022/04/19 10:36:42;;;;;;;6.15;4.43;;;;;;;19.37;32.01;101341.38;5195399;28;20041;-66
2022/04/19 10:39:14;;;;;;;7.78;5.03;;;;;;;19.32;31.52;101330.44;5194444;28;20830;-66
2022/04/19 10:41:59;;;;;;;7.07;4.97;;;;;;;19.58;31.61;101319.47;5193732;28;20029;-66
2022/04/19 10:44:31;;;;;;;6.97;4.82;;;;;;;19.43;31.73;101337.16;5192836;28;20046;-66
2022/04/19 10:47:16;;;;;;;9.13;5.17;;;;;;;19.42;31.72;101323.06;5193559;28;20714;-69
2022/04/19 10:50:02;;;;;;;9.20;5.80;;;;;;;19.64;31.90;101308.16;5196860;28;20133;-69
2022/04/19 10:52:35;;;;;;;8.57;5.18;;;;;;;19.68;31.50;101311.28;5188315;28;20499;-69
2022/04/19 10:55:09;;;;;;;8.65;5.30;;;;;;;19.67;30.77;101313.13;5194663;28;20476;-69
2022/04/19 11:00:36;;;;;;;7.43;4.97;;;;;;;19.62;30.71;101304.00;5197047;28;20140;-66
2022/04/19 11:03:14;;;;;;;6.65;4.72;;;;;;;19.87;31.52;101304.66;5194193;28;20384;-66
2022/04/19 11:05:53;;;;;;;6.32;4.28;;;;;;;19.89;29.28;101303.47;5195267;28;20065;-69
2022/04/19 11:08:25;;;;;;;5.85;3.95;;;;;;;19.87;30.60;101302.81;5193487;28;20376;-69
2022/04/19 11:10:56;;;;;;;7.77;4.67;;;;;;;20.11;30.70;101293.75;5199821;28;20037;-68
2022/04/19 11:13:31;;;;;;;7.80;5.17;;;;;;;20.33;31.51;101291.22;5197557;28;20507;-69
2022/04/19 11:16:05;;;;;;;8.25;5.55;;;;;;;20.45;30.45;101292.41;5193463;28;20026;-69
2022/04/19 11:18:39;;;;;;;8.07;5.32;;;;;;;20.55;30.12;101295.66;5193984;28;20030;-69
2022/04/19 11:21:12;;;;;;;9.85;5.15;;;;;;;20.57;29.55;101293.66;5198632;28;20033;-69
2022/04/19 11:23:45;;;;;;;8.75;5.47;;;;;;;20.71;29.18;101291.13;5196780;28;20026;-69
2022/04/19 11:26:35;;;;;;;8.70;5.47;;;;;;;20.93;29.68;101295.50;5194170;28;20121;-68
2022/04/19 11:29:12;;;;;;;10.32;5.50;;;;;;;20.79;29.56;101291.84;5195581;28;20022;-69
2022/04/19 11:31:43;;;;;;;9.38;5.38;;;;;;;20.80;29.76;101290.84;5194964;28;20373;-69
2022/04/19 11:34:16;;;;;;;7.93;5.30;;;;;;;20.64;28.53;101280.41;5192954;28;20034;-67
2022/04/19 11:36:47;;;;;;;;;;;;;;;21.40;28.64;101277.38;5196768;28;20110;-69
2022/04/19 11:48:10;;;;;;;8.45;5.47;;;;;;;21.01;29.20;101279.41;5197702;28;20026;-68
2022/04/19 11:50:41;;;;;;;8.48;4.93;;;;;;;20.94;28.20;101283.84;5192315;28;20034;-68
2022/04/19 11:53:19;;;;;;;8.27;4.70;;;;;;;21.02;29.33;101281.06;5193854;28;20087;-68
2022/04/19 11:55:52;;;;;;;8.05;5.65;;;;;;;21.06;28.67;101287.69;5193953;28;20456;-68
2022/04/19 11:58:23;;;;;;;8.98;5.07;;;;;;;21.14;28.07;101284.91;5192499;28;20514;-69
2022/04/19 12:01:01;;;;;;;7.40;4.73;;;;;;;21.40;28.93;101288.03;5194632;28;20046;-68
2022/04/19 12:03:37;;;;;;;7.45;4.72;;;;;;;21.21;27.83;101284.94;5191891;28;20049;-67
2022/04/19 12:06:14;;;;;;;9.55;5.55;;;;;;;21.14;27.91;101276.91;5192655;28;20105;-69
2022/04/19 12:08:54;;;;;;;7.50;5.00;;;;;;;21.31;28.42;101271.31;5194830;28;20033;-69
2022/04/19 12:11:27;;;;;;;9.98;5.70;;;;;;;21.28;28.86;101267.19;5192917;28;20045;-70
2022/04/19 12:13:59;;;;;;;7.68;5.05;;;;;;;21.30;28.74;101275.81;5187676;28;20566;-68
2022/04/19 12:16:31;;;;;;;8.13;5.20;;;;;;;21.28;27.94;101267.19;5187957;28;20121;-69
2022/04/19 12:19:07;;;;;;;9.68;5.63;;;;;;;21.27;29.15;101278.88;5196909;28;20041;-69
2022/04/19 12:21:41;;;;;;;9.20;5.45;;;;;;;21.51;29.33;101274.19;5193354;28;20037;-69
2022/04/19 12:24:30;;;;;;;10.18;5.28;;;;;;;21.73;28.54;101269.66;5193382;28;20607;-69
2022/04/19 12:27:07;;;;;;;6.93;4.55;;;;;;;21.54;29.14;101268.47;5196196;28;20033;-68
2022/04/19 12:30:02;;;;;;;7.72;4.68;;;;;;;21.61;28.54;101261.38;5198377;28;20031;-69
2022/04/19 12:32:55;;;;;;;7.03;4.65;;;;;;;21.77;28.11;101265.59;5196501;28;20025;-69